createdAt,value
2023-02-28T13:21:25.458Z,27.25
2023-02-28T13:25:25.324Z,26.79
2023-02-28T13:29:25.343Z,26.77
2023-02-28T13:33:25.289Z,26.79
2023-02-28T13:37:25.258Z,26.85
2023-02-28T13:41:25.178Z,26.89
2023-02-28T13:45:25.151Z,26.97
2023-02-28T13:49:25.134Z,26.94
2023-02-28T13:53:25.135Z,26.92
2023-02-28T13:57:25.069Z,26.87
2023-02-28T14:01:25.055Z,26.82
2023-02-28T14:05:25.034Z,26.81
2023-02-28T14:09:25.257Z,26.81
2023-02-28T14:13:25.436Z,26.81
2023-02-28T14:17:25.740Z,26.82
2023-02-28T14:21:25.581Z,26.81
2023-02-28T14:25:27.019Z,26.78
2023-02-28T14:29:25.524Z,26.77
2023-02-28T14:33:25.524Z,26.75
2023-02-28T14:37:25.459Z,26.77
2023-02-28T14:41:25.443Z,26.77
2023-02-28T14:45:25.501Z,26.77
2023-02-28T14:49:25.634Z,26.75
2023-02-28T14:53:25.789Z,26.74
2023-02-28T14:57:26.005Z,26.75
2023-02-28T15:01:26.165Z,26.78
2023-02-28T15:05:26.289Z,26.77
2023-02-28T15:09:26.489Z,26.81
2023-02-28T15:13:26.641Z,26.82
2023-02-28T15:17:26.882Z,26.81
2023-02-28T15:21:26.824Z,26.79
2023-02-28T15:25:26.803Z,26.81
2023-02-28T15:29:26.772Z,26.77
2023-02-28T15:33:26.672Z,26.65
2023-02-28T15:37:26.680Z,26.58
2023-02-28T15:41:26.670Z,26.55
2023-02-28T15:45:26.598Z,26.52
2023-02-28T15:49:26.575Z,26.47
2023-02-28T15:53:26.529Z,26.44
2023-02-28T15:57:26.526Z,26.46
2023-02-28T16:01:26.493Z,26.44
2023-02-28T16:05:26.362Z,26.44
2023-02-28T16:09:26.362Z,26.43
2023-02-28T16:13:26.314Z,26.43
2023-02-28T16:17:26.475Z,26.44
2023-02-28T16:21:26.583Z,26.41
2023-02-28T16:25:26.506Z,26.41
2023-02-28T16:29:26.507Z,26.41
2023-02-28T16:33:26.491Z,26.43
2023-02-28T16:37:26.472Z,26.40
2023-02-28T16:41:26.525Z,26.43
2023-02-28T16:45:26.424Z,26.40
2023-02-28T16:49:26.544Z,26.40
2023-02-28T16:53:26.580Z,26.36
2023-02-28T16:57:26.561Z,26.40
2023-02-28T17:01:26.644Z,26.38
2023-02-28T17:05:26.556Z,26.37
2023-02-28T17:09:40.089Z,26.33
2023-02-28T17:13:27.462Z,26.33
2023-02-28T17:17:26.463Z,26.31
2023-02-28T17:21:26.395Z,26.28
2023-02-28T17:25:26.357Z,26.30
2023-02-28T17:29:26.293Z,26.27
2023-02-28T17:33:26.249Z,26.27
2023-02-28T17:37:26.320Z,26.24
2023-02-28T17:41:26.216Z,26.24
2023-02-28T17:45:26.195Z,26.24
2023-02-28T17:49:26.234Z,26.20
2023-02-28T17:53:26.255Z,26.20
2023-02-28T17:57:26.271Z,26.17
2023-02-28T18:01:26.434Z,26.16
2023-02-28T18:05:26.554Z,26.16
2023-02-28T18:09:26.607Z,26.15
2023-02-28T18:13:26.635Z,26.12
2023-02-28T18:17:26.781Z,26.13
2023-02-28T18:21:26.827Z,26.04
2023-02-28T18:25:26.922Z,26.03
2023-02-28T18:29:27.024Z,26.01
2023-02-28T18:33:27.175Z,25.97
2023-02-28T18:37:27.291Z,25.96
2023-02-28T18:41:27.442Z,25.95
2023-02-28T18:45:27.563Z,25.87
2023-02-28T18:49:27.748Z,25.85
2023-02-28T18:53:27.929Z,25.82
2023-02-28T18:57:28.122Z,25.77
2023-02-28T19:01:28.349Z,25.75
2023-02-28T19:05:28.530Z,25.75
2023-02-28T19:09:28.725Z,25.70
2023-02-28T19:13:28.941Z,25.72
2023-02-28T19:17:29.228Z,25.69
2023-02-28T19:21:29.112Z,25.68
2023-02-28T19:25:29.059Z,25.66
2023-02-28T19:29:29.034Z,25.68
2023-02-28T19:33:29.042Z,25.65
2023-02-28T19:37:28.963Z,25.63
2023-02-28T19:41:29.211Z,25.62
2023-02-28T19:45:28.925Z,25.62
2023-02-28T19:49:28.826Z,25.59
2023-02-28T19:53:28.795Z,25.56
2023-02-28T19:57:28.750Z,25.55
2023-02-28T20:01:29.000Z,25.58
2023-02-28T20:05:28.927Z,25.55
2023-02-28T20:09:28.911Z,25.53
2023-02-28T20:13:28.869Z,25.53
2023-02-28T20:17:28.850Z,25.53
2023-02-28T20:21:28.786Z,25.50
2023-02-28T20:25:28.763Z,25.49
2023-02-28T20:29:28.733Z,25.49
2023-02-28T20:33:28.838Z,25.48
2023-02-28T20:37:28.620Z,25.48
2023-02-28T20:41:28.705Z,25.46
2023-02-28T20:45:28.940Z,25.45
2023-02-28T20:49:29.104Z,25.45
2023-02-28T20:53:29.028Z,25.42
2023-02-28T20:57:29.024Z,25.44
2023-02-28T21:01:29.023Z,25.39
2023-02-28T21:05:28.965Z,25.39
2023-02-28T21:09:28.908Z,25.39
2023-02-28T21:13:28.867Z,25.39
2023-02-28T21:17:28.836Z,25.35
2023-02-28T21:21:28.774Z,25.34
2023-02-28T21:25:28.743Z,25.35
2023-02-28T21:29:28.724Z,25.34
2023-02-28T21:33:28.706Z,25.35
2023-02-28T21:37:28.673Z,25.32
2023-02-28T21:41:28.587Z,25.31
2023-02-28T21:45:28.615Z,25.29
2023-02-28T21:49:28.607Z,25.28
2023-02-28T21:53:28.599Z,25.28
2023-02-28T21:57:28.664Z,25.28
2023-02-28T22:01:28.683Z,25.26
2023-02-28T22:05:28.863Z,25.28
2023-02-28T22:09:28.752Z,25.22
2023-02-28T22:13:28.806Z,25.24
2023-02-28T22:17:28.731Z,25.24
2023-02-28T22:21:28.753Z,25.22
2023-02-28T22:25:28.687Z,25.19
2023-02-28T22:29:28.706Z,25.21
2023-02-28T22:33:28.729Z,25.19
2023-02-28T22:37:28.686Z,25.21
2023-02-28T22:41:28.688Z,25.21
2023-02-28T22:45:28.719Z,25.18
2023-02-28T22:49:28.687Z,25.17
2023-02-28T22:53:28.742Z,25.15
2023-02-28T22:57:28.720Z,25.17
2023-02-28T23:01:28.854Z,25.15
2023-02-28T23:05:28.739Z,25.14
2023-02-28T23:09:28.735Z,25.14
2023-02-28T23:13:28.721Z,25.14
2023-02-28T23:17:28.728Z,25.12
2023-02-28T23:21:28.776Z,25.12
2023-02-28T23:25:28.706Z,25.12
2023-02-28T23:29:28.704Z,25.11
2023-02-28T23:33:28.735Z,25.10
2023-02-28T23:37:28.758Z,25.08
2023-02-28T23:41:28.784Z,25.07
2023-02-28T23:45:28.891Z,25.08
2023-02-28T23:49:28.854Z,25.08
2023-02-28T23:53:28.889Z,25.05
2023-02-28T23:57:28.889Z,25.05
